Nambucca Heads, Australia
Current Conditions -  °F | °C
As of 5:30 PM on Wednesday 26 Nov 2014 (Local Time) from YCFS Reporting Station
Overcast Overcast  
Wind Chill: 72°   Ceiling: 1700
Heat Index: 72°   Visibility: 6mi
Dew Point: 70°   Wind: 2mph
Humidity: 94%   Direction: 170°S
Pressure: 30"   Gusts: NA
Location:  30.64°S, 153°E
Report Text: YCFS 260630Z AUTO 17002KT 9999 // BKN017 OVC022 22/21 Q1016
Loading
Personal Weather Stations






























Interactive Weather Map New forecast layout! Learn more

10-Day Weather Forecast

Advertisements
Track Severe Weather on mobile